aviador You're here:

OIAW Decoded Metar

AHWAZ in IRAN
Report Time2018-05-28 09:30:00
UTC Time2018-05-28 09:45:58
Flight Rules vfr VFR
Wind310° at 04 kt
W.Decomp.*RWY 30: 4.0 kt HW 0.5 kt RCW
W.Rank310° ranks 6
Current wind is below 310° avg. (5.7)
Visibility9999 m
Phenomena:N/A
Clouds:N/A
Expected CloudBase > 17,200 ft AGL from Temp-Dew spread
CeilingNone
Temp44°C (ISA +29)
Dew Point01°C (7% RH)
Heat Index40.0°C
AAT40.7°C
QNH1004 hPa
Density Alt3,717 ft
Elevation72 ft
Report Wrong Elevation
Raw Report
METAR OIAW 280930Z 31004KT CAVOK 44/01 Q1004=

Extra information for OIAW:More info

Metar Taf Metar & Taf Last 4 Metars F.Rules Stats Wind Profile Meteogram Temp Stats Airport Information Weather charts Add Link Nearby VenuesMetar ALERT Operation Metar Decoded Social comments